KOOA/OOA METAR and TAF weather

Enter ICAO airport designator
Station Type Date Time Source
KOOA METAR 2022/12/10 02:35 UTC NOAA

KOOA 100235Z AUTO 00000KT 5SM OVC009 04/04 A3017 RMK AO2 T00350035


Station Type Date Time Source
KOOA Decoded METAR 2022/12/10 02:35 UTC NOAA

Oskaloosa, Oskaloosa Municipal Airport, IA, United States (KOOA) 41-13-34N 092-29-37W
Dec 09, 2022 - 09:35 PM EST / 2022.12.10 0235 UTC
Wind: Calm:0
Visibility: 5 mile(s):0
Sky conditions: overcast
Temperature: 38.3 F (3.5 C)
Dew Point: 38.3 F (3.5 C)
Relative Humidity: 100%
Pressure (altimeter): 30.17 in. Hg (1021 hPa)
ob: KOOA 100235Z AUTO 00000KT 5SM OVC009 04/04 A3017 RMK AO2 T00350035
cycle: 2

Station Type Date Time Source
KOOA TAF UTC NOAA

Error!

Example: see airport list